Nearby METAR Reports

 

KMTN - Baltimore/Martin, Maryland, USA
Distance from station: SSE 8mi, 13km
Updated: Fri, 27-Feb-2015 2:45pm EST
NOT Current
Few Clouds
Few Clouds
 Wind from NW
Wind: NW 12 mph , 19 km/h
Temperature: 30°F , -1°C
Wind Chill: 20°F , -7°C
Dew Point: 12°F , -11°C
Humidity: 47%
Barometer: 30.47 inHg , 1031.8 hPa
Clouds: Few Clouds
Visibility: 10 miles , 16 km
Cloud details: Few Clouds 6000 ft
2015/02/27 19:45 KMTN 271945Z 32010KT 10SM FEW060 M01/M11 A3047
KDMH - Baltimore/Dwntwn, Maryland, USA
Distance from station: SW 12mi, 19km
Updated: Fri, 27-Feb-2015 3:54pm EST

 
Temperature: 28°F , -2°C
Dew Point: 9°F , -13°C
Humidity: 43%
Barometer: 30.44 inHg , 1030.8 hPa
2015/02/27 20:54 KDMH 272054Z AUTO M02/M13 A3044 RMK AO1 SLP307 T10171128 58007
 
KBWI - Balto/Wash Intl, Maryland, USA
Distance from station: SSW 20mi, 33km
Updated: Fri, 27-Feb-2015 3:54pm EST
Partly cloudy
Partly cloudy
 Wind from NW
Wind: NW 15 mph , 24 km/h, Gust: 21 mph , 33 km/h
Temperature: 30°F , -1°C
Wind Chill: 19°F , -7°C
Dew Point: 10°F , -12°C
Humidity: 43%
Barometer: 30.48 inHg , 1032.2 hPa
Clouds: Partly cloudy
Visibility: 10 miles , 16 km
Cloud details: Few Clouds 5000 ft
Partly cloudy 25000 ft
2015/02/27 20:54 KBWI 272054Z 31013G18KT 10SM FEW050 SCT250 M01/M12 A3048 RMK AO2 SLP321 T10111122 53019
KDMW - Carroll Cnty, Maryland, USA
Distance from station: WNW 30mi, 48km
Updated: Fri, 27-Feb-2015 3:45pm EST
Clear
Clear
 Wind from NW
Wind: NW 8 mph , 13 km/h
Temperature: 27°F , -3°C
Wind Chill: 19°F , -7°C
Dew Point: 9°F , -13°C
Humidity: 46%
Barometer: 30.43 inHg , 1030.5 hPa
Clouds: Clear
Visibility: 10 miles , 16 km
2015/02/27 20:45 KDMW 272045Z AUTO 31007KT 10SM CLR M03/M13 A3043 RMK AO2
 
KNAK - Annapolis/Naval, Maryland, USA
Distance from station: S 30mi, 48km
Updated: Fri, 27-Feb-2015 3:54pm EST
Clear
Clear
 Wind from NW
Wind: NW 10 mph , 17 km/h
Temperature: 30°F , -1°C
Wind Chill: 21°F , -6°C
Dew Point: 12°F , -11°C
Humidity: 47%
Barometer: 30.48 inHg , 1032.2 hPa
Clouds: Clear
Visibility: 10 miles , 16 km
2015/02/27 20:54 KNAK 272054Z AUTO 32009KT 10SM CLR M01/M11 A3048 RMK AO2 SLP324 T10111111 53017
KW29 - Stevensville, Maryland, USA
Distance from station: SSE 31mi, 50km
Updated: Fri, 27-Feb-2015 3:48pm EST

 Wind from N
Wind: N 10 mph , 17 km/h
Temperature: 32°F , 0°C
Wind Chill: 24°F , -4°C
Dew Point: 14°F , -10°C
Humidity: 47%
Barometer: 30.48 inHg , 1032.2 hPa
Visibility: 10 miles , 16 km
2015/02/27 20:48 KW29 272048Z AUTO 01009KT 10SM 00/M10 A3048 RMK AO1
 
KCGS - College Park, Maryland, USA
Distance from station: SW 38mi, 61km
Updated: Fri, 27-Feb-2015 3:45pm EST
Clear
Clear
 Wind from WNW
Wind: WNW 10 mph , 17 km/h
Temperature: 32°F , 0°C
Wind Chill: 24°F , -4°C
Dew Point: 10°F , -12°C
Humidity: 40%
Barometer: 30.48 inHg , 1032.2 hPa
Clouds: Clear
Visibility: 10 miles , 16 km
2015/02/27 20:45 KCGS 272045Z AUTO 30009KT 10SM CLR 00/M12 A3048 RMK AO1
KGAI - Gaithersburg, Maryland, USA
Distance from station: WSW 40mi, 65km
Updated: Fri, 27-Feb-2015 3:55pm EST
Clear
Clear
 Wind from WNW
Wind: WNW 8 mph , 13 km/h, Gust: 17 mph , 28 km/h
Temperature: 27°F , -3°C
Wind Chill: 19°F , -7°C
Dew Point: 7°F , -14°C
Humidity: 43%
Barometer: 30.50 inHg , 1032.8 hPa
Clouds: Clear
Visibility: 10 miles , 16 km
2015/02/27 20:55 KGAI 272055Z AUTO 30007G15KT 10SM CLR M03/M14 A3050 RMK AO1 52014
 
KTHV - York, Pennsylvania, USA
Distance from station: NNW 40mi, 65km
Updated: Fri, 27-Feb-2015 3:53pm EST
Clear
Clear
 Wind from NW
Wind: NW 10 mph , 17 km/h
Temperature: 27°F , -3°C
Wind Chill: 18°F , -8°C
Dew Point: 9°F , -13°C
Humidity: 46%
Barometer: 30.46 inHg , 1031.5 hPa
Clouds: Clear
Visibility: 10 miles , 16 km
2015/02/27 20:53 KTHV 272053Z AUTO 31009KT 10SM CLR M03/M13 A3046 RMK AO2 SLP323 T10331133 53011
KFDK - Frederick, Maryland, USA
Distance from station: W 47mi, 75km
Updated: Fri, 27-Feb-2015 3:45pm EST
Clear
Clear
 Wind from W
Wind: W 9 mph , 15 km/h
Temperature: 32°F , 0°C
Wind Chill: 24°F , -4°C
Dew Point: 3°F , -16°C
Humidity: 29%
Barometer: 30.51 inHg , 1033.2 hPa
Clouds: Clear
Visibility: 10 miles , 16 km
2015/02/27 20:45 KFDK 272045Z 28008KT 10SM SKC 00/M16 A3051
 
KESN - Easton/Newnam, Maryland, USA
Distance from station: SSE 48mi, 78km
Updated: Fri, 27-Feb-2015 3:50pm EST
Clear
Clear
 Wind from N
Wind: N 12 mph , 19 km/h
Temperature: 32°F , 0°C
Wind Chill: 23°F , -5°C
Dew Point: 18°F , -8°C
Humidity: 55%
Barometer: 30.50 inHg , 1032.8 hPa
Clouds: Clear
Visibility: 10 miles , 16 km
2015/02/27 20:50 KESN 272050Z 01010KT 10SM SKC 00/M08 A3050
KDCA - Washington/Natl, Washington D.c., USA
Distance from station: SW 49mi, 79km
Updated: Fri, 27-Feb-2015 3:52pm EST
Few Clouds
Few Clouds
 Wind from NNW
Wind: NNW 15 mph , 24 km/h, Gust: 21 mph , 33 km/h
Temperature: 34°F , 1°C
Wind Chill: 24°F , -4°C
Dew Point: 10°F , -12°C
Humidity: 38%
Barometer: 30.50 inHg , 1032.8 hPa
Clouds: Few Clouds
Visibility: 10 miles , 16 km
Cloud details: Few Clouds 4000 ft
2015/02/27 20:52 KDCA 272052Z 33013G18KT 10SM FEW040 01/M12 A3050 RMK AO2 SLP327 T00111117 53018
 
KLNS - Lancaster, Pennsylvania, USA
Distance from station: N 49mi, 79km
Updated: Fri, 27-Feb-2015 3:53pm EST
Clear
Clear
 Wind from NW
Wind: NW 7 mph , 11 km/h
Temperature: 25°F , -4°C
Wind Chill: 17°F , -8°C
Dew Point: 7°F , -14°C
Humidity: 46%
Barometer: 30.45 inHg , 1031.2 hPa
Clouds: Clear
Visibility: 10 miles , 16 km
2015/02/27 20:53 KLNS 272053Z 31006KT 10SM CLR M04/M14 A3045 RMK AO2 SLP318 T10391144 53012
KILG - Wilmington, Delaware, USA
Distance from station: ENE 50mi, 81km
Updated: Fri, 27-Feb-2015 3:51pm EST
Clear
Clear
 Wind from NW
Wind: NW 16 mph , 26 km/h
Temperature: 28°F , -2°C
Wind Chill: 16°F , -9°C
Dew Point: 10°F , -12°C
Humidity: 47%
Barometer: 30.47 inHg , 1031.8 hPa
Clouds: Clear
Visibility: 10 miles , 16 km
2015/02/27 20:51 KILG 272051Z AUTO 31014KT 10SM CLR M02/M12 A3047 RMK AO2 SLP319 T10171117 53014